Darya1 — HKTI5 — position and weather

sailwx.info

Track history (hours):
 
Tides and Currents Weather Stations Pressure Air Temp Water Temp Dewpoint Dewpoint Depression Visibility Wind Speed Wind Dir Waves Ship Positions

Darya1

Last reported at 2017-Nov-19 14:51 UTC. Time now 2017-Nov-24 11:24 UTC.
Position N 11°07' W 074°52'.

Length 38 m; draft 2.9 m.

Type: Ship. MMSI: 730152053.

Date/timePositionNaut miles runAvg speedWind from/ knotsBaromVisibWave heightAir tempDewpointWater temp
2017-Nov-19 14:51N 11°07' W 074°52'2 6.7
2017-Nov-19 14:30N 11°05' W 074°51'5 9.3
2017-Nov-19 14:00N 11°02' W 074°48'  
2017-Nov-15 22:06N 11°01' W 074°47'1 3.9
2017-Nov-15 21:58N 11°01' W 074°47'2 3.5
2017-Nov-15 21:30N 11°02' W 074°49'1 2.2
2017-Nov-15 21:00N 11°03' W 074°49'0 0.1
2017-Nov-15 20:30N 11°03' W 074°49'0 0.0
2017-Nov-15 20:00N 11°03' W 074°49'0 0.0
2017-Nov-15 19:30N 11°03' W 074°49'0 0.0
2017-Nov-15 19:00N 11°03' W 074°49'0 0.0
2017-Nov-15 18:30N 11°03' W 074°49'0 0.0
2017-Nov-15 18:00N 11°03' W 074°49'0 0.0
2017-Nov-15 17:30N 11°03' W 074°49'0 0.0
2017-Nov-15 17:00N 11°03' W 074°49'0 0.0
2017-Nov-15 16:30N 11°03' W 074°49'0 0.0
2017-Nov-15 16:00N 11°03' W 074°49'0 0.0
2017-Nov-15 15:30N 11°03' W 074°49'0 0.0
2017-Nov-15 15:00N 11°03' W 074°49'0 0.0
2017-Nov-15 14:30N 11°03' W 074°49'0 0.0
2017-Nov-15 14:00N 11°03' W 074°49'0 0.0
2017-Nov-15 13:30N 11°03' W 074°49'0 0.0
2017-Nov-15 13:00N 11°03' W 074°49'0 0.0
2017-Nov-15 12:30N 11°03' W 074°49'0 0.0
2017-Nov-15 12:00N 11°03' W 074°49'0 0.0
2017-Nov-14 21:43N 11°03' W 074°49'0 0.0
2017-Nov-14 21:30N 11°03' W 074°49'0 0.0
2017-Nov-14 21:00N 11°03' W 074°49'0 0.0
2017-Nov-14 20:30N 11°03' W 074°49'0 0.0
2017-Nov-14 20:00N 11°03' W 074°49'0 0.0
2017-Nov-14 19:30N 11°03' W 074°49'0 0.0
2017-Nov-14 19:00N 11°03' W 074°49'0 0.0
2017-Nov-14 18:16N 11°03' W 074°49'0 0.0
2017-Nov-14 18:00N 11°03' W 074°49'0 0.0
2017-Nov-14 17:30N 11°03' W 074°49'0 0.0
2017-Nov-14 16:59N 11°03' W 074°49'0 0.0
2017-Nov-14 16:30N 11°03' W 074°49'0 0.0
2017-Nov-14 16:00N 11°03' W 074°49'0 0.0
2017-Nov-14 15:30N 11°03' W 074°49'0 0.0
2017-Nov-14 15:00N 11°03' W 074°49'0 0.0
2017-Nov-14 14:30N 11°03' W 074°49'0 0.0
2017-Nov-14 14:00N 11°03' W 074°49'0 0.0
2017-Nov-14 13:30N 11°03' W 074°49'0 0.0
2017-Nov-14 13:00N 11°03' W 074°49'0 0.0
2017-Nov-14 12:29N 11°03' W 074°49'0 0.0
2017-Nov-14 12:00N 11°03' W 074°49'0 0.0
2017-Nov-14 11:29N 11°03' W 074°49'0 0.0
2017-Nov-13 22:59N 11°03' W 074°49'0 0.0
2017-Nov-13 22:30N 11°03' W 074°49'0 0.0
2017-Nov-13 22:00N 11°03' W 074°49'  
2017-Nov-10 13:53N 11°03' W 074°49'0 0.0
2017-Nov-10 13:30N 11°03' W 074°49'2 3.7
2017-Nov-10 12:59N 11°04' W 074°51'2 4.0
2017-Nov-10 12:29N 11°06' W 074°51'  
Track history (hours):
 
Tides and Currents Weather Stations Pressure Air Temp Water Temp Dewpoint Dewpoint Depression Visibility Wind Speed Wind Dir Waves Ship Positions

Darya1

Last reported at 2017-Nov-19 14:51 UTC. Time now 2017-Nov-24 11:24 UTC.
Position N 11°07' W 074°52'.

Length 38 m; draft 2.9 m.

Type: Ship. MMSI: 730152053.

Date/timePositionNaut miles runAvg speedWind from/ knotsBaromVisibWave heightAir tempDewpointWater temp
2017-Nov-19 14:51N 11°07' W 074°52'2 6.7
2017-Nov-19 14:30N 11°05' W 074°51'5 9.3
2017-Nov-19 14:00N 11°02' W 074°48'  
2017-Nov-15 22:06N 11°01' W 074°47'1 3.9
2017-Nov-15 21:58N 11°01' W 074°47'2 3.5
2017-Nov-15 21:30N 11°02' W 074°49'1 2.2
2017-Nov-15 21:00N 11°03' W 074°49'0 0.1
2017-Nov-15 20:30N 11°03' W 074°49'0 0.0
2017-Nov-15 20:00N 11°03' W 074°49'0 0.0
2017-Nov-15 19:30N 11°03' W 074°49'0 0.0
2017-Nov-15 19:00N 11°03' W 074°49'0 0.0
2017-Nov-15 18:30N 11°03' W 074°49'0 0.0
2017-Nov-15 18:00N 11°03' W 074°49'0 0.0
2017-Nov-15 17:30N 11°03' W 074°49'0 0.0
2017-Nov-15 17:00N 11°03' W 074°49'0 0.0
2017-Nov-15 16:30N 11°03' W 074°49'0 0.0
2017-Nov-15 16:00N 11°03' W 074°49'0 0.0
2017-Nov-15 15:30N 11°03' W 074°49'0 0.0
2017-Nov-15 15:00N 11°03' W 074°49'0 0.0
2017-Nov-15 14:30N 11°03' W 074°49'0 0.0
2017-Nov-15 14:00N 11°03' W 074°49'0 0.0
2017-Nov-15 13:30N 11°03' W 074°49'0 0.0
2017-Nov-15 13:00N 11°03' W 074°49'0 0.0
2017-Nov-15 12:30N 11°03' W 074°49'0 0.0
2017-Nov-15 12:00N 11°03' W 074°49'0 0.0
2017-Nov-14 21:43N 11°03' W 074°49'0 0.0
2017-Nov-14 21:30N 11°03' W 074°49'0 0.0
2017-Nov-14 21:00N 11°03' W 074°49'0 0.0
2017-Nov-14 20:30N 11°03' W 074°49'0 0.0
2017-Nov-14 20:00N 11°03' W 074°49'0 0.0
2017-Nov-14 19:30N 11°03' W 074°49'0 0.0
2017-Nov-14 19:00N 11°03' W 074°49'0 0.0
2017-Nov-14 18:16N 11°03' W 074°49'0 0.0
2017-Nov-14 18:00N 11°03' W 074°49'0 0.0
2017-Nov-14 17:30N 11°03' W 074°49'0 0.0
2017-Nov-14 16:59N 11°03' W 074°49'0 0.0
2017-Nov-14 16:30N 11°03' W 074°49'0 0.0
2017-Nov-14 16:00N 11°03' W 074°49'0 0.0
2017-Nov-14 15:30N 11°03' W 074°49'0 0.0
2017-Nov-14 15:00N 11°03' W 074°49'0 0.0
2017-Nov-14 14:30N 11°03' W 074°49'0 0.0
2017-Nov-14 14:00N 11°03' W 074°49'0 0.0
2017-Nov-14 13:30N 11°03' W 074°49'0 0.0
2017-Nov-14 13:00N 11°03' W 074°49'0 0.0
2017-Nov-14 12:29N 11°03' W 074°49'0 0.0
2017-Nov-14 12:00N 11°03' W 074°49'0 0.0
2017-Nov-14 11:29N 11°03' W 074°49'0 0.0
2017-Nov-13 22:59N 11°03' W 074°49'0 0.0
2017-Nov-13 22:30N 11°03' W 074°49'0 0.0
2017-Nov-13 22:00N 11°03' W 074°49'  
2017-Nov-10 13:53N 11°03' W 074°49'0 0.0
2017-Nov-10 13:30N 11°03' W 074°49'2 3.7
2017-Nov-10 12:59N 11°04' W 074°51'2 4.0
2017-Nov-10 12:29N 11°06' W 074°51'  

Dump ship's entire track history